createdAt,value
2024-01-11T00:00:33.693Z,54.27
2024-01-11T00:03:05.277Z,52.90
2024-01-11T00:05:32.113Z,49.40
2024-01-11T00:07:58.831Z,51.15
2024-01-11T00:10:25.676Z,50.10
2024-01-11T00:12:52.512Z,50.37
2024-01-11T00:15:19.226Z,51.53
2024-01-11T00:17:46.258Z,59.55
2024-01-11T00:20:13.190Z,80.50
2024-01-11T00:22:40.032Z,74.57
2024-01-11T00:25:06.907Z,60.67
2024-01-11T00:27:33.631Z,53.63
2024-01-11T00:30:00.341Z,52.78
2024-01-11T00:32:27.240Z,49.08
2024-01-11T00:34:54.105Z,48.45
2024-01-11T00:37:20.941Z,47.20
2024-01-11T00:39:47.645Z,54.55
2024-01-11T00:42:14.318Z,48.80
2024-01-11T00:44:41.790Z,50.85
2024-01-11T00:47:08.807Z,51.92
2024-01-11T00:49:35.807Z,50.20
2024-01-11T00:52:02.593Z,47.78
2024-01-11T00:54:29.331Z,50.63
2024-01-11T00:56:55.938Z,52.72
2024-01-11T00:59:22.695Z,54.17
2024-01-11T01:01:50.032Z,52.63
2024-01-11T01:04:16.933Z,52.20
2024-01-11T01:06:44.367Z,55.30
2024-01-11T01:09:11.146Z,55.20
2024-01-11T01:11:38.096Z,55.70
2024-01-11T01:14:04.768Z,53.57
2024-01-11T01:16:31.456Z,52.53
2024-01-11T01:18:58.365Z,52.95
2024-01-11T01:21:25.081Z,52.15
2024-01-11T01:23:51.744Z,52.72
2024-01-11T01:26:18.531Z,50.17
2024-01-11T01:28:45.193Z,53.08
2024-01-11T01:31:11.982Z,56.53
2024-01-11T01:33:38.831Z,56.35
2024-01-11T01:36:10.173Z,53.13
2024-01-11T01:38:36.886Z,57.70
2024-01-11T01:41:03.984Z,50.92
2024-01-11T01:43:30.672Z,52.97
2024-01-11T01:45:57.830Z,58.22
2024-01-11T01:48:24.755Z,53.22
2024-01-11T01:50:51.829Z,52.83
2024-01-11T01:53:23.220Z,57.92
2024-01-11T01:55:51.110Z,55.72
2024-01-11T01:58:19.419Z,59.22
2024-01-11T02:00:47.072Z,54.60
2024-01-11T02:03:15.998Z,49.67
2024-01-11T02:05:43.863Z,55.28
2024-01-11T02:08:16.664Z,56.33
2024-01-11T02:10:44.183Z,54.50
2024-01-11T02:13:11.285Z,57.28
2024-01-11T02:15:38.139Z,49.47
2024-01-11T02:18:05.142Z,56.28
2024-01-11T02:20:32.800Z,51.22
2024-01-11T02:23:06.490Z,52.58
2024-01-11T02:25:33.253Z,56.85
2024-01-11T02:27:59.988Z,58.90
2024-01-11T02:30:26.716Z,57.60
2024-01-11T02:32:54.639Z,53.50
2024-01-11T02:35:22.335Z,54.13
2024-01-11T02:37:49.857Z,50.80
2024-01-11T02:40:16.651Z,49.77
2024-01-11T02:42:43.466Z,51.65
2024-01-11T02:45:12.310Z,53.28
2024-01-11T02:47:39.142Z,54.47
2024-01-11T02:50:09.817Z,53.72
2024-01-11T02:52:36.640Z,50.90
2024-01-11T02:55:03.521Z,45.15
2024-01-11T02:57:30.343Z,55.15
2024-01-11T02:59:56.952Z,54.13
2024-01-11T03:02:23.900Z,49.75
2024-01-11T03:04:50.797Z,51.83
2024-01-11T03:07:17.535Z,48.90
2024-01-11T03:09:44.302Z,50.35
2024-01-11T03:12:10.936Z,45.20
2024-01-11T03:14:37.776Z,51.92
2024-01-11T03:17:04.767Z,52.13
2024-01-11T03:19:31.522Z,49.22
2024-01-11T03:21:58.712Z,46.17
2024-01-11T03:24:25.327Z,45.33
2024-01-11T03:26:51.997Z,47.90
2024-01-11T03:29:18.735Z,48.33
2024-01-11T03:31:46.584Z,48.38
2024-01-11T03:34:13.683Z,47.72
2024-01-11T03:36:41.386Z,44.50
2024-01-11T03:39:08.129Z,43.80
2024-01-11T03:41:35.081Z,46.30
2024-01-11T03:44:02.094Z,46.10
2024-01-11T03:46:29.035Z,43.15
2024-01-11T03:48:57.307Z,41.15
2024-01-11T03:51:24.048Z,44.65
2024-01-11T03:53:50.930Z,40.93
2024-01-11T03:56:17.822Z,41.95
2024-01-11T03:58:46.478Z,42.15
2024-01-11T04:01:13.346Z,43.13
2024-01-11T04:03:40.186Z,38.45
2024-01-11T04:06:07.852Z,35.77
2024-01-11T04:08:34.980Z,38.50
2024-01-11T04:11:07.845Z,40.50
2024-01-11T04:13:34.664Z,39.72
2024-01-11T04:16:05.965Z,40.33
2024-01-11T04:18:32.650Z,39.13
2024-01-11T04:20:59.501Z,39.13
2024-01-11T04:23:26.250Z,36.90
2024-01-11T04:25:53.105Z,40.58
2024-01-11T04:28:19.832Z,43.08
2024-01-11T04:30:46.534Z,40.60
2024-01-11T04:33:13.385Z,39.00
2024-01-11T04:35:40.123Z,38.63
2024-01-11T04:38:06.844Z,38.03
2024-01-11T04:40:33.565Z,37.92
2024-01-11T04:43:03.038Z,39.57
2024-01-11T04:45:29.686Z,37.17
2024-01-11T04:47:56.462Z,43.67
2024-01-11T04:50:23.624Z,38.13
2024-01-11T04:52:50.489Z,39.10
2024-01-11T04:55:17.092Z,34.33
2024-01-11T04:57:43.926Z,35.42
2024-01-11T05:00:11.464Z,36.97
2024-01-11T05:02:38.454Z,33.53
2024-01-11T05:05:05.620Z,32.90
2024-01-11T05:07:32.909Z,37.53
2024-01-11T05:10:00.053Z,38.60
2024-01-11T05:12:26.659Z,39.63
2024-01-11T05:14:53.313Z,36.17
2024-01-11T05:17:19.994Z,40.55
2024-01-11T05:19:46.701Z,39.80
2024-01-11T05:22:13.499Z,38.50
2024-01-11T05:24:40.159Z,36.95
2024-01-11T05:27:06.826Z,37.60
2024-01-11T05:29:33.660Z,40.60
2024-01-11T05:32:00.632Z,39.90
2024-01-11T05:34:27.481Z,41.35
2024-01-11T05:36:54.086Z,36.00
2024-01-11T05:39:20.898Z,34.00
2024-01-11T05:41:50.970Z,40.05
2024-01-11T05:44:17.846Z,36.70
2024-01-11T05:46:45.543Z,43.20
2024-01-11T05:49:12.556Z,41.83
2024-01-11T05:51:39.477Z,36.13
2024-01-11T05:54:06.736Z,41.72
2024-01-11T05:56:34.128Z,37.30
2024-01-11T05:59:01.368Z,43.53
2024-01-11T06:01:28.349Z,41.78
2024-01-11T06:03:55.110Z,41.35
2024-01-11T06:06:22.389Z,45.10
2024-01-11T06:08:49.913Z,39.90
2024-01-11T06:11:16.653Z,41.17
2024-01-11T06:13:43.303Z,40.15
2024-01-11T06:16:13.602Z,34.05
2024-01-11T06:18:40.725Z,39.78
2024-01-11T06:21:07.468Z,39.40
2024-01-11T06:23:34.279Z,39.08
2024-01-11T06:26:01.155Z,37.15
2024-01-11T06:28:27.905Z,38.63
2024-01-11T06:30:54.986Z,41.85
2024-01-11T06:33:22.089Z,33.47
2024-01-11T06:35:49.063Z,39.70
2024-01-11T06:38:15.762Z,42.28
2024-01-11T06:40:42.789Z,37.50
2024-01-11T06:43:09.418Z,41.10
2024-01-11T06:45:36.436Z,38.20
2024-01-11T06:48:03.503Z,67.78
2024-01-11T06:50:30.426Z,52.53
2024-01-11T06:52:57.264Z,48.30
2024-01-11T06:55:24.176Z,48.30
2024-01-11T06:57:51.002Z,43.80
2024-01-11T07:00:17.768Z,44.65
2024-01-11T07:02:44.507Z,39.92
2024-01-11T07:05:11.287Z,40.22
2024-01-11T07:07:38.300Z,35.38
2024-01-11T07:10:06.850Z,37.70
2024-01-11T07:12:34.473Z,37.38
2024-01-11T07:15:01.126Z,37.30
2024-01-11T07:17:28.163Z,40.17
2024-01-11T07:19:54.930Z,38.50
2024-01-11T07:22:21.539Z,41.10
2024-01-11T07:24:48.183Z,36.10
2024-01-11T07:27:15.744Z,40.40
2024-01-11T07:29:42.648Z,44.55
2024-01-11T07:32:09.659Z,43.95
2024-01-11T07:34:36.510Z,42.87
2024-01-11T07:37:03.486Z,42.83
2024-01-11T07:39:32.261Z,45.10
2024-01-11T07:41:59.024Z,42.35
2024-01-11T07:44:25.784Z,45.33
2024-01-11T07:46:54.541Z,50.90
2024-01-11T07:49:22.930Z,51.05
2024-01-11T07:51:50.427Z,55.70
2024-01-11T07:54:17.341Z,50.05
2024-01-11T07:56:44.387Z,56.00
2024-01-11T07:59:16.185Z,67.57
2024-01-11T08:01:43.405Z,71.45
2024-01-11T08:04:10.142Z,66.03
2024-01-11T08:06:36.877Z,51.15
2024-01-11T08:09:06.069Z,55.40
2024-01-11T08:11:36.571Z,53.80
2024-01-11T08:14:07.227Z,54.22
2024-01-11T08:16:37.511Z,51.58
2024-01-11T08:19:04.475Z,46.15
2024-01-11T08:21:31.370Z,65.95
2024-01-11T08:24:02.578Z,76.27
2024-01-11T08:26:31.746Z,58.83
2024-01-11T08:28:58.536Z,54.67
2024-01-11T08:31:25.726Z,44.83
2024-01-11T08:33:52.807Z,61.58
2024-01-11T08:36:19.539Z,60.97
2024-01-11T08:38:46.341Z,77.13
2024-01-11T08:41:13.161Z,56.42
2024-01-11T08:43:40.838Z,53.35
2024-01-11T08:46:07.553Z,53.72
2024-01-11T08:48:34.384Z,51.00
2024-01-11T08:51:01.439Z,44.50
2024-01-11T08:53:28.290Z,43.08
2024-01-11T08:55:54.899Z,48.95
2024-01-11T08:58:21.513Z,47.38
2024-01-11T09:00:48.257Z,49.43
2024-01-11T09:03:16.865Z,51.75
2024-01-11T09:05:43.880Z,51.63
2024-01-11T09:08:10.628Z,50.30
2024-01-11T09:10:37.326Z,48.80
2024-01-11T09:13:04.154Z,49.40
2024-01-11T09:15:31.060Z,53.90
2024-01-11T09:17:57.906Z,54.83
2024-01-11T09:20:24.752Z,53.10
2024-01-11T09:22:51.359Z,45.67
2024-01-11T09:25:18.078Z,47.90
2024-01-11T09:27:44.727Z,46.63
2024-01-11T09:30:11.935Z,49.63
2024-01-11T09:32:38.772Z,53.67
2024-01-11T09:35:06.259Z,45.78
2024-01-11T09:37:33.623Z,46.40
2024-01-11T09:40:02.095Z,47.30
2024-01-11T09:42:29.473Z,46.70
2024-01-11T09:44:57.806Z,49.65
2024-01-11T09:47:26.566Z,49.53
2024-01-11T09:49:56.875Z,44.97
2024-01-11T09:52:26.912Z,47.63
2024-01-11T09:54:53.693Z,45.55
2024-01-11T09:57:36.146Z,48.67
2024-01-11T10:00:08.749Z,49.10
2024-01-11T10:02:35.549Z,48.53
2024-01-11T10:05:02.384Z,46.75
2024-01-11T10:07:31.872Z,48.08
2024-01-11T10:09:59.458Z,53.22
2024-01-11T10:12:26.856Z,51.28
2024-01-11T10:14:54.079Z,49.73
2024-01-11T10:17:24.299Z,56.08
2024-01-11T10:19:54.626Z,47.80
2024-01-11T10:22:23.223Z,46.22
2024-01-11T10:24:51.762Z,49.15
2024-01-11T10:27:18.429Z,48.20
2024-01-11T10:29:46.575Z,51.65
2024-01-11T10:32:13.304Z,49.25
2024-01-11T10:34:42.550Z,45.63
2024-01-11T10:37:11.776Z,45.05
2024-01-11T10:39:39.719Z,45.60
2024-01-11T10:42:09.117Z,48.00
2024-01-11T10:44:42.017Z,43.85
2024-01-11T10:47:10.928Z,43.55
2024-01-11T10:49:42.374Z,45.08
2024-01-11T10:52:10.104Z,49.00
2024-01-11T10:54:38.243Z,47.75
2024-01-11T10:57:06.820Z,48.00
2024-01-11T10:59:35.350Z,45.35
2024-01-11T11:02:07.853Z,46.58
2024-01-11T11:04:36.989Z,42.87
2024-01-11T11:07:04.535Z,46.30
2024-01-11T11:09:34.073Z,43.78
2024-01-11T11:12:02.204Z,46.30
2024-01-11T11:14:29.815Z,45.78
2024-01-11T11:16:56.637Z,46.30
2024-01-11T11:19:23.764Z,47.40
2024-01-11T11:21:52.081Z,43.30
2024-01-11T11:24:18.797Z,44.70
2024-01-11T11:26:45.557Z,45.22
2024-01-11T11:29:12.358Z,47.97
2024-01-11T11:31:43.491Z,43.78
2024-01-11T11:34:13.870Z,42.47
2024-01-11T11:36:48.029Z,47.70
2024-01-11T11:39:14.944Z,44.83
2024-01-11T11:41:44.311Z,41.20
2024-01-11T11:44:15.379Z,41.25
2024-01-11T11:46:42.389Z,42.72
2024-01-11T11:49:11.413Z,39.38
2024-01-11T11:51:40.510Z,38.67
2024-01-11T11:54:11.077Z,39.80
2024-01-11T11:56:38.231Z,40.25
2024-01-11T11:59:05.139Z,38.72
2024-01-11T12:01:33.642Z,37.65
2024-01-11T12:04:00.355Z,38.03
2024-01-11T12:06:29.262Z,38.97
2024-01-11T12:08:58.164Z,39.03
2024-01-11T12:11:25.786Z,38.88
2024-01-11T12:13:54.681Z,40.38
2024-01-11T12:16:22.246Z,41.55
2024-01-11T12:18:50.592Z,41.60
2024-01-11T12:21:18.082Z,37.17
2024-01-11T12:23:45.327Z,39.17
2024-01-11T12:26:16.578Z,36.33
2024-01-11T12:28:45.433Z,37.47
2024-01-11T12:31:14.135Z,35.07
2024-01-11T12:33:42.752Z,38.03
2024-01-11T12:36:10.307Z,37.13
2024-01-11T12:38:37.168Z,36.85
2024-01-11T12:41:05.451Z,36.03
2024-01-11T12:43:32.515Z,35.90
2024-01-11T12:45:59.495Z,37.63
2024-01-11T12:48:26.624Z,35.72
2024-01-11T12:51:05.808Z,38.85
2024-01-11T12:53:41.790Z,37.95
2024-01-11T12:56:12.894Z,35.13
2024-01-11T12:58:40.042Z,38.10
2024-01-11T13:01:11.987Z,40.95
2024-01-11T13:03:48.328Z,37.05
2024-01-11T13:06:16.703Z,36.50
2024-01-11T13:08:44.170Z,35.67
2024-01-11T13:11:10.907Z,35.75
2024-01-11T13:13:37.719Z,38.13
2024-01-11T13:16:07.680Z,35.65
2024-01-11T13:18:34.565Z,40.03
2024-01-11T13:21:01.399Z,36.47
2024-01-11T13:23:28.056Z,36.50
2024-01-11T13:25:54.813Z,34.75
2024-01-11T13:28:21.431Z,35.53
2024-01-11T13:30:50.547Z,37.38
2024-01-11T13:33:19.176Z,37.67
2024-01-11T13:35:47.225Z,37.22
2024-01-11T13:38:14.273Z,37.20
2024-01-11T13:40:41.790Z,38.90
2024-01-11T13:43:09.084Z,39.20
2024-01-11T13:45:38.986Z,37.23
2024-01-11T13:48:07.108Z,36.40
2024-01-11T13:50:34.865Z,36.90
2024-01-11T13:53:03.379Z,38.97
2024-01-11T13:55:39.375Z,38.15
2024-01-11T13:58:07.118Z,35.30
2024-01-11T14:00:33.936Z,36.70
2024-01-11T14:03:00.894Z,34.88
2024-01-11T14:05:27.845Z,36.08
2024-01-11T14:08:00.806Z,41.40
2024-01-11T14:10:28.650Z,36.17
2024-01-11T14:12:55.836Z,40.63
2024-01-11T14:15:22.634Z,44.35
2024-01-11T14:17:50.087Z,41.33
2024-01-11T14:20:18.356Z,45.17
2024-01-11T14:22:52.431Z,46.37
2024-01-11T14:25:21.182Z,47.08
2024-01-11T14:27:49.417Z,49.05
2024-01-11T14:30:16.319Z,51.28
2024-01-11T14:32:43.676Z,50.42
2024-01-11T14:35:11.653Z,57.83
2024-01-11T14:37:39.898Z,49.50
2024-01-11T14:40:12.010Z,50.03
2024-01-11T14:42:38.854Z,52.10
2024-01-11T14:45:06.821Z,57.83
2024-01-11T14:47:34.006Z,52.70
2024-01-11T14:50:01.307Z,50.92
2024-01-11T14:52:27.995Z,50.85
2024-01-11T14:54:54.790Z,54.10
2024-01-11T14:57:22.486Z,54.10
2024-01-11T14:59:49.334Z,54.10
2024-01-11T15:02:16.348Z,53.83
2024-01-11T15:04:43.786Z,53.00
2024-01-11T15:07:10.602Z,54.50
2024-01-11T15:09:40.247Z,57.20
2024-01-11T15:12:08.808Z,53.77
2024-01-11T15:14:35.562Z,58.45
2024-01-11T15:17:03.830Z,57.08
2024-01-11T15:19:31.049Z,55.47
2024-01-11T15:21:57.852Z,54.67
2024-01-11T15:24:24.422Z,55.63
2024-01-11T15:26:51.275Z,58.75
2024-01-11T15:29:18.462Z,57.17
2024-01-11T15:31:47.766Z,55.88
2024-01-11T15:34:16.195Z,53.78
2024-01-11T15:36:44.354Z,54.87
2024-01-11T15:41:42.375Z,56.35
2024-01-11T15:44:09.425Z,53.28
2024-01-11T15:46:36.329Z,63.38
2024-01-11T15:49:03.064Z,58.50
2024-01-11T15:51:30.310Z,57.63
2024-01-11T15:53:57.481Z,58.42
2024-01-11T15:56:24.134Z,57.58
2024-01-11T15:58:50.856Z,58.20
2024-01-11T16:01:17.514Z,59.70
2024-01-11T16:03:45.923Z,63.92
2024-01-11T16:06:12.878Z,60.80
2024-01-11T16:08:39.762Z,57.42
2024-01-11T16:11:06.477Z,61.60
2024-01-11T16:13:33.116Z,64.90
2024-01-11T16:16:00.674Z,62.97
2024-01-11T16:18:27.669Z,59.70
2024-01-11T16:20:55.971Z,58.55
2024-01-11T16:23:22.946Z,59.00
2024-01-11T16:25:50.132Z,59.03
2024-01-11T16:28:16.860Z,59.88
2024-01-11T16:30:43.736Z,57.10
2024-01-11T16:33:11.297Z,57.38
2024-01-11T16:35:45.094Z,57.42
2024-01-11T16:38:16.453Z,54.17
2024-01-11T16:40:43.227Z,55.25
2024-01-11T16:43:12.794Z,57.95
2024-01-11T16:45:40.499Z,58.70
2024-01-11T16:48:11.534Z,59.65
2024-01-11T16:50:38.584Z,59.90
2024-01-11T16:53:05.419Z,58.88
2024-01-11T16:55:33.197Z,63.85
2024-01-11T16:58:00.958Z,58.08
2024-01-11T17:00:29.101Z,63.70
2024-01-11T17:02:59.131Z,69.23
2024-01-11T17:05:26.154Z,59.92
2024-01-11T17:07:52.984Z,63.17
2024-01-11T17:10:19.577Z,78.97
2024-01-11T17:12:46.618Z,69.55
2024-01-11T17:15:15.155Z,80.23
2024-01-11T17:17:42.973Z,80.45
2024-01-11T17:20:11.767Z,74.47
2024-01-11T17:22:38.561Z,67.63
2024-01-11T17:25:05.492Z,71.70
2024-01-11T17:27:32.278Z,66.33
2024-01-11T17:29:59.059Z,65.75
2024-01-11T17:32:25.760Z,67.18
2024-01-11T17:34:57.063Z,65.82
2024-01-11T17:37:23.959Z,67.68
2024-01-11T17:39:51.466Z,66.87
2024-01-11T17:42:18.961Z,69.82
2024-01-11T17:44:45.923Z,77.28
2024-01-11T17:47:13.677Z,72.03
2024-01-11T17:49:43.054Z,68.07
2024-01-11T17:52:10.289Z,69.27
2024-01-11T17:54:37.063Z,67.45
2024-01-11T17:57:04.073Z,65.72
2024-01-11T17:59:30.841Z,68.07
2024-01-11T18:01:58.021Z,67.38
2024-01-11T18:04:24.838Z,73.40
2024-01-11T18:06:52.067Z,68.68
2024-01-11T18:09:18.957Z,70.15
2024-01-11T18:11:46.170Z,69.93
2024-01-11T18:14:13.401Z,64.13
2024-01-11T18:16:40.181Z,65.33
2024-01-11T18:19:08.906Z,65.70
2024-01-11T18:21:35.844Z,74.82
2024-01-11T18:24:02.542Z,69.60
2024-01-11T18:26:29.255Z,68.57
2024-01-11T18:28:56.130Z,70.13
2024-01-11T18:31:23.890Z,69.15
2024-01-11T18:33:53.287Z,72.00
2024-01-11T18:36:24.591Z,74.00
2024-01-11T18:38:54.220Z,67.63
2024-01-11T18:41:22.299Z,68.27
2024-01-11T18:43:49.156Z,75.20
2024-01-11T18:46:17.405Z,74.72
2024-01-11T18:48:44.136Z,76.97
2024-01-11T18:51:11.000Z,97.57
2024-01-11T18:53:37.803Z,100.13
2024-01-11T18:56:04.832Z,115.47
2024-01-11T18:58:31.698Z,139.52
2024-01-11T19:00:58.505Z,86.88
2024-01-11T19:03:25.492Z,72.57
2024-01-11T19:05:52.715Z,75.87
2024-01-11T19:08:19.670Z,83.82
2024-01-11T19:10:46.349Z,79.93
2024-01-11T19:13:13.029Z,79.35
2024-01-11T19:15:39.797Z,77.68
2024-01-11T19:18:10.265Z,79.33
2024-01-11T19:20:37.316Z,73.47
2024-01-11T19:23:04.559Z,76.45
2024-01-11T19:25:33.366Z,103.65
2024-01-11T19:28:02.330Z,93.30
2024-01-11T19:30:29.834Z,99.67
2024-01-11T19:32:56.574Z,92.47
2024-01-11T19:35:23.360Z,103.80
2024-01-11T19:37:50.521Z,86.05
2024-01-11T19:40:17.293Z,104.30
2024-01-11T19:42:43.960Z,97.97
2024-01-11T19:45:11.180Z,112.18
2024-01-11T19:47:38.609Z,105.68
2024-01-11T19:50:06.615Z,96.55
2024-01-11T19:52:33.397Z,115.90
2024-01-11T19:55:00.074Z,92.30
2024-01-11T19:57:26.980Z,77.70
2024-01-11T19:59:53.823Z,76.40
2024-01-11T20:02:20.564Z,82.32
2024-01-11T20:04:47.249Z,76.25
2024-01-11T20:07:13.991Z,79.03
2024-01-11T20:09:41.964Z,84.35
2024-01-11T20:12:09.896Z,82.65
2024-01-11T20:14:37.415Z,76.38
2024-01-11T20:17:04.600Z,77.95
2024-01-11T20:19:32.110Z,85.03
2024-01-11T20:21:58.949Z,85.30
2024-01-11T20:24:25.676Z,84.28
2024-01-11T20:26:52.571Z,80.22
2024-01-11T20:29:19.666Z,79.22
2024-01-11T20:31:46.894Z,80.13
2024-01-11T20:34:16.212Z,80.65
2024-01-11T20:36:43.416Z,81.57
2024-01-11T20:39:10.172Z,76.03
2024-01-11T20:41:44.096Z,79.43
2024-01-11T20:44:11.728Z,73.30
2024-01-11T20:46:38.561Z,78.10
2024-01-11T20:49:05.286Z,76.68
2024-01-11T20:51:32.066Z,75.72
2024-01-11T20:53:59.304Z,73.75
2024-01-11T20:56:27.562Z,76.27
2024-01-11T20:58:54.332Z,73.38
2024-01-11T21:01:21.096Z,73.35
2024-01-11T21:03:47.903Z,81.78
2024-01-11T21:06:14.961Z,78.78
2024-01-11T21:08:41.804Z,76.00
2024-01-11T21:11:09.204Z,89.30
2024-01-11T21:13:35.998Z,77.35
2024-01-11T21:16:03.832Z,82.53
2024-01-11T21:18:31.089Z,78.03
2024-01-11T21:21:00.428Z,80.07
2024-01-11T21:23:27.160Z,79.53
2024-01-11T21:25:53.925Z,81.88
2024-01-11T21:28:20.620Z,72.93
2024-01-11T21:30:47.317Z,76.28
2024-01-11T21:33:16.672Z,77.80
2024-01-11T21:35:44.151Z,89.32
2024-01-11T21:38:10.952Z,80.20
2024-01-11T21:40:40.786Z,87.05
2024-01-11T21:43:08.765Z,78.13
2024-01-11T21:45:35.454Z,75.10
2024-01-11T21:48:02.181Z,80.63
2024-01-11T21:50:31.957Z,77.68
2024-01-11T21:52:59.186Z,79.18
2024-01-11T21:55:26.122Z,84.40
2024-01-11T21:57:53.090Z,82.27
2024-01-11T22:00:20.133Z,80.50
2024-01-11T22:02:47.041Z,75.03
2024-01-11T22:05:13.826Z,80.50
2024-01-11T22:07:40.492Z,84.82
2024-01-11T22:10:08.093Z,81.07
2024-01-11T22:12:34.833Z,77.70
2024-01-11T22:15:03.268Z,80.90
2024-01-11T22:17:31.327Z,79.45
2024-01-11T22:19:58.157Z,77.30
2024-01-11T22:22:24.893Z,79.13
2024-01-11T22:24:51.495Z,87.47
2024-01-11T22:27:18.159Z,79.63
2024-01-11T22:29:44.858Z,85.68
2024-01-11T22:32:11.536Z,84.28
2024-01-11T22:34:38.278Z,84.87
2024-01-11T22:37:04.948Z,81.82
2024-01-11T22:39:31.555Z,88.65
2024-01-11T22:41:58.190Z,80.97
2024-01-11T22:44:24.825Z,79.28
2024-01-11T22:46:51.525Z,80.90
2024-01-11T22:49:18.111Z,75.45
2024-01-11T22:51:44.696Z,80.38
2024-01-11T22:54:11.417Z,83.05
2024-01-11T22:56:38.737Z,86.10
2024-01-11T22:59:06.362Z,76.53
2024-01-11T23:01:33.618Z,83.82
2024-01-11T23:04:00.301Z,82.10
2024-01-11T23:06:27.275Z,83.20
2024-01-11T23:08:54.049Z,78.65
2024-01-11T23:11:20.884Z,85.47
2024-01-11T23:13:47.625Z,80.13
2024-01-11T23:16:14.763Z,76.53
2024-01-11T23:18:44.339Z,117.53
2024-01-11T23:21:12.105Z,96.43
2024-01-11T23:23:38.838Z,82.33
2024-01-11T23:26:06.518Z,86.97
2024-01-11T23:28:33.148Z,84.25
2024-01-11T23:31:00.037Z,82.90
2024-01-11T23:33:26.923Z,81.05
2024-01-11T23:35:54.881Z,84.57
2024-01-11T23:38:21.659Z,87.72
2024-01-11T23:40:48.402Z,90.25
2024-01-11T23:43:15.198Z,83.88
2024-01-11T23:45:42.492Z,85.38
2024-01-11T23:48:09.309Z,85.17
2024-01-11T23:50:36.177Z,86.90
2024-01-11T23:53:02.921Z,86.45
2024-01-11T23:55:29.620Z,80.47
2024-01-11T23:57:56.327Z,88.53
